sensor_id;sensor_type;location;lat;lon;timestamp;pressure;altitude;pressure_sealevel;temperature;humidity
1480;BME280;732;51.698;4.886;2023-04-16T00:01:17;102373.44;;;4.44;78.39
1480;BME280;732;51.698;4.886;2023-04-16T00:03:46;102392.41;;;4.52;79.28
1480;BME280;732;51.698;4.886;2023-04-16T00:06:15;102394.16;;;4.39;79.75
1480;BME280;732;51.698;4.886;2023-04-16T00:08:45;102389.78;;;4.25;80.59
1480;BME280;732;51.698;4.886;2023-04-16T00:11:13;102396.03;;;4.24;81.22
1480;BME280;732;51.698;4.886;2023-04-16T00:13:42;102355.75;;;3.90;81.25
1480;BME280;732;51.698;4.886;2023-04-16T00:16:12;102387.00;;;4.26;81.53
1480;BME280;732;51.698;4.886;2023-04-16T00:18:41;102393.03;;;4.29;81.44
1480;BME280;732;51.698;4.886;2023-04-16T00:21:10;102358.31;;;4.32;80.80
1480;BME280;732;51.698;4.886;2023-04-16T00:23:39;102391.78;;;4.34;81.50
1480;BME280;732;51.698;4.886;2023-04-16T00:26:07;102384.94;;;4.17;82.34
1480;BME280;732;51.698;4.886;2023-04-16T00:28:37;102381.34;;;4.18;82.55
1480;BME280;732;51.698;4.886;2023-04-16T00:31:05;102349.50;;;3.91;82.67
1480;BME280;732;51.698;4.886;2023-04-16T00:33:35;102339.22;;;3.99;83.01
1480;BME280;732;51.698;4.886;2023-04-16T00:36:04;102369.13;;;4.29;82.96
1480;BME280;732;51.698;4.886;2023-04-16T00:38:33;102370.13;;;4.28;83.07
1480;BME280;732;51.698;4.886;2023-04-16T00:41:02;102342.44;;;4.17;83.46
1480;BME280;732;51.698;4.886;2023-04-16T00:43:31;102348.16;;;4.11;83.63
1480;BME280;732;51.698;4.886;2023-04-16T00:46:04;102344.50;;;4.26;83.11
1480;BME280;732;51.698;4.886;2023-04-16T00:48:36;102375.31;;;4.42;83.24
1480;BME280;732;51.698;4.886;2023-04-16T00:51:06;102347.88;;;4.29;83.45
1480;BME280;732;51.698;4.886;2023-04-16T00:53:35;102350.34;;;4.19;83.56
1480;BME280;732;51.698;4.886;2023-04-16T00:56:05;102349.34;;;4.07;83.72
1480;BME280;732;51.698;4.886;2023-04-16T00:58:34;102381.59;;;4.28;84.13
1480;BME280;732;51.698;4.886;2023-04-16T01:01:03;102384.13;;;4.30;84.52
1480;BME280;732;51.698;4.886;2023-04-16T01:03:38;102348.56;;;4.05;84.50
1480;BME280;732;51.698;4.886;2023-04-16T01:06:07;102344.44;;;4.01;84.60
1480;BME280;732;51.698;4.886;2023-04-16T01:08:36;102382.22;;;4.32;84.60
1480;BME280;732;51.698;4.886;2023-04-16T01:11:05;102357.66;;;4.28;84.14
1480;BME280;732;51.698;4.886;2023-04-16T01:13:34;102378.81;;;4.30;83.99
1480;BME280;732;51.698;4.886;2023-04-16T01:16:05;102392.03;;;4.31;84.13
1480;BME280;732;51.698;4.886;2023-04-16T01:18:36;102378.56;;;4.20;84.43
1480;BME280;732;51.698;4.886;2023-04-16T01:21:06;102391.91;;;4.33;84.65
1480;BME280;732;51.698;4.886;2023-04-16T01:23:34;102379.81;;;4.41;84.64
1480;BME280;732;51.698;4.886;2023-04-16T01:26:03;102390.72;;;4.37;84.59
1480;BME280;732;51.698;4.886;2023-04-16T01:28:31;102383.94;;;4.33;84.34
1480;BME280;732;51.698;4.886;2023-04-16T01:30:59;102388.38;;;4.19;84.93
1480;BME280;732;51.698;4.886;2023-04-16T01:33:39;102390.59;;;4.25;84.50
1480;BME280;732;51.698;4.886;2023-04-16T01:36:10;102395.69;;;4.16;84.64
1480;BME280;732;51.698;4.886;2023-04-16T01:38:39;102399.94;;;4.18;85.16
1480;BME280;732;51.698;4.886;2023-04-16T01:41:07;102398.34;;;4.29;84.52
1480;BME280;732;51.698;4.886;2023-04-16T01:43:35;102389.19;;;4.20;84.27
1480;BME280;732;51.698;4.886;2023-04-16T01:46:14;102389.41;;;4.04;85.21
1480;BME280;732;51.698;4.886;2023-04-16T01:48:45;102388.00;;;4.11;84.55
1480;BME280;732;51.698;4.886;2023-04-16T01:51:14;102390.66;;;4.11;84.52
1480;BME280;732;51.698;4.886;2023-04-16T01:53:44;102386.47;;;4.34;84.02
1480;BME280;732;51.698;4.886;2023-04-16T01:56:12;102389.03;;;4.36;83.66
1480;BME280;732;51.698;4.886;2023-04-16T01:58:40;102368.16;;;4.17;83.60
1480;BME280;732;51.698;4.886;2023-04-16T02:01:09;102353.28;;;4.14;83.20
1480;BME280;732;51.698;4.886;2023-04-16T02:03:38;102397.09;;;4.34;83.76
1480;BME280;732;51.698;4.886;2023-04-16T02:06:07;102399.13;;;4.31;83.67
1480;BME280;732;51.698;4.886;2023-04-16T02:08:36;102404.84;;;4.24;83.88
1480;BME280;732;51.698;4.886;2023-04-16T02:11:04;102412.28;;;4.19;84.08
1480;BME280;732;51.698;4.886;2023-04-16T02:13:33;102406.97;;;4.19;84.38
1480;BME280;732;51.698;4.886;2023-04-16T02:16:01;102413.22;;;4.18;84.20
1480;BME280;732;51.698;4.886;2023-04-16T02:18:56;102407.19;;;4.16;84.32
1480;BME280;732;51.698;4.886;2023-04-16T02:21:27;102344.19;;;3.91;83.59
1480;BME280;732;51.698;4.886;2023-04-16T02:23:56;102407.38;;;4.26;83.81
1480;BME280;732;51.698;4.886;2023-04-16T02:26:27;102403.06;;;4.25;84.06
1480;BME280;732;51.698;4.886;2023-04-16T02:29:01;102374.72;;;4.11;83.62
1480;BME280;732;51.698;4.886;2023-04-16T02:31:37;102409.84;;;4.16;84.29
1480;BME280;732;51.698;4.886;2023-04-16T02:34:06;102412.63;;;4.28;84.02
1480;BME280;732;51.698;4.886;2023-04-16T02:36:34;102403.47;;;4.19;83.88
1480;BME280;732;51.698;4.886;2023-04-16T02:39:04;102408.69;;;4.33;83.64
1480;BME280;732;51.698;4.886;2023-04-16T02:41:32;102414.16;;;4.17;83.90
1480;BME280;732;51.698;4.886;2023-04-16T02:44:00;102409.84;;;4.16;83.78
1480;BME280;732;51.698;4.886;2023-04-16T02:46:28;102419.00;;;4.25;84.01
1480;BME280;732;51.698;4.886;2023-04-16T02:48:57;102408.69;;;4.33;83.84
1480;BME280;732;51.698;4.886;2023-04-16T02:51:25;102405.91;;;4.35;83.70
1480;BME280;732;51.698;4.886;2023-04-16T02:53:53;102414.75;;;4.35;83.60
1480;BME280;732;51.698;4.886;2023-04-16T02:56:22;102406.13;;;4.19;83.97
1480;BME280;732;51.698;4.886;2023-04-16T02:58:51;102420.25;;;4.19;84.23
1480;BME280;732;51.698;4.886;2023-04-16T03:01:19;102415.22;;;4.15;84.37
1480;BME280;732;51.698;4.886;2023-04-16T03:03:47;102413.44;;;4.15;84.50
1480;BME280;732;51.698;4.886;2023-04-16T03:06:15;102412.31;;;4.05;84.86
1480;BME280;732;51.698;4.886;2023-04-16T03:08:43;102418.94;;;4.12;84.53
1480;BME280;732;51.698;4.886;2023-04-16T03:11:11;102422.00;;;4.06;84.60
1480;BME280;732;51.698;4.886;2023-04-16T03:13:41;102422.53;;;4.11;84.56
1480;BME280;732;51.698;4.886;2023-04-16T03:16:09;102420.53;;;4.15;84.24
1480;BME280;732;51.698;4.886;2023-04-16T03:18:37;102415.72;;;4.07;84.51
1480;BME280;732;51.698;4.886;2023-04-16T03:21:06;102415.56;;;4.10;84.58
1480;BME280;732;51.698;4.886;2023-04-16T03:23:34;102417.00;;;4.01;84.63
1480;BME280;732;51.698;4.886;2023-04-16T03:26:04;102418.50;;;4.05;84.69
1480;BME280;732;51.698;4.886;2023-04-16T03:28:33;102391.06;;;4.05;84.49
1480;BME280;732;51.698;4.886;2023-04-16T03:31:02;102423.13;;;4.16;83.92
1480;BME280;732;51.698;4.886;2023-04-16T03:33:31;102427.53;;;4.03;84.47
1480;BME280;732;51.698;4.886;2023-04-16T03:35:59;102422.41;;;4.00;84.79
1480;BME280;732;51.698;4.886;2023-04-16T03:38:29;102371.66;;;3.77;84.55
1480;BME280;732;51.698;4.886;2023-04-16T03:40:58;102427.31;;;4.06;84.56
1480;BME280;732;51.698;4.886;2023-04-16T03:43:28;102421.06;;;4.07;84.59
1480;BME280;732;51.698;4.886;2023-04-16T03:45:57;102422.34;;;4.14;84.05
1480;BME280;732;51.698;4.886;2023-04-16T03:48:26;102415.19;;;4.02;84.39
1480;BME280;732;51.698;4.886;2023-04-16T03:50:54;102427.00;;;4.10;84.56
1480;BME280;732;51.698;4.886;2023-04-16T03:53:23;102422.25;;;4.16;84.43
1480;BME280;732;51.698;4.886;2023-04-16T03:55:51;102402.66;;;4.04;84.26
1480;BME280;732;51.698;4.886;2023-04-16T03:58:20;102393.72;;;3.77;85.09
1480;BME280;732;51.698;4.886;2023-04-16T04:00:54;102424.72;;;3.91;85.43
1480;BME280;732;51.698;4.886;2023-04-16T04:03:23;102419.75;;;4.00;85.22
1480;BME280;732;51.698;4.886;2023-04-16T04:05:54;102420.94;;;4.08;85.06
1480;BME280;732;51.698;4.886;2023-04-16T04:08:27;102424.41;;;3.96;85.33
1480;BME280;732;51.698;4.886;2023-04-16T04:10:55;102397.34;;;3.76;85.64
1480;BME280;732;51.698;4.886;2023-04-16T04:13:24;102390.34;;;3.75;85.38
1480;BME280;732;51.698;4.886;2023-04-16T04:15:53;102424.31;;;3.98;85.48
1480;BME280;732;51.698;4.886;2023-04-16T04:18:22;102417.31;;;3.97;85.21
1480;BME280;732;51.698;4.886;2023-04-16T04:20:50;102425.91;;;4.00;85.25
1480;BME280;732;51.698;4.886;2023-04-16T04:23:23;102426.56;;;4.04;85.04
1480;BME280;732;51.698;4.886;2023-04-16T04:25:52;102403.47;;;3.91;85.48
1480;BME280;732;51.698;4.886;2023-04-16T04:28:20;102415.03;;;3.90;85.78
1480;BME280;732;51.698;4.886;2023-04-16T04:30:48;102433.09;;;3.85;86.14
1480;BME280;732;51.698;4.886;2023-04-16T04:33:17;102433.66;;;3.76;86.61
1480;BME280;732;51.698;4.886;2023-04-16T04:35:46;102434.31;;;3.80;86.77
1480;BME280;732;51.698;4.886;2023-04-16T04:38:15;102432.47;;;3.94;86.49
1480;BME280;732;51.698;4.886;2023-04-16T04:40:47;102403.13;;;3.69;86.50
1480;BME280;732;51.698;4.886;2023-04-16T04:43:17;102443.34;;;3.77;86.90
1480;BME280;732;51.698;4.886;2023-04-16T04:45:45;102392.84;;;3.50;87.18
1480;BME280;732;51.698;4.886;2023-04-16T04:48:15;102418.19;;;3.83;86.65
1480;BME280;732;51.698;4.886;2023-04-16T04:50:44;102384.78;;;3.66;86.22
1480;BME280;732;51.698;4.886;2023-04-16T04:53:13;102406.94;;;3.65;86.66
1480;BME280;732;51.698;4.886;2023-04-16T04:55:42;102438.34;;;4.00;86.47
1480;BME280;732;51.698;4.886;2023-04-16T04:58:11;102392.88;;;3.77;86.26
1480;BME280;732;51.698;4.886;2023-04-16T05:00:41;102450.91;;;4.10;86.09
1480;BME280;732;51.698;4.886;2023-04-16T05:03:10;102424.78;;;3.90;86.12
1480;BME280;732;51.698;4.886;2023-04-16T05:05:39;102444.66;;;4.12;85.87
1480;BME280;732;51.698;4.886;2023-04-16T05:08:07;102452.09;;;4.06;86.27
1480;BME280;732;51.698;4.886;2023-04-16T05:10:37;102454.63;;;4.08;86.33
1480;BME280;732;51.698;4.886;2023-04-16T05:13:05;102405.81;;;3.96;85.49
1480;BME280;732;51.698;4.886;2023-04-16T05:15:35;102456.19;;;4.25;85.80
1480;BME280;732;51.698;4.886;2023-04-16T05:18:03;102453.19;;;4.17;86.01
1480;BME280;732;51.698;4.886;2023-04-16T05:20:32;102440.06;;;4.14;86.17
1480;BME280;732;51.698;4.886;2023-04-16T05:23:03;102457.13;;;4.24;85.71
1480;BME280;732;51.698;4.886;2023-04-16T05:25:32;102461.41;;;4.26;85.91
1480;BME280;732;51.698;4.886;2023-04-16T05:28:00;102459.16;;;4.48;85.38
1480;BME280;732;51.698;4.886;2023-04-16T05:30:28;102457.59;;;4.43;85.33
1480;BME280;732;51.698;4.886;2023-04-16T05:32:57;102460.47;;;4.40;85.19
1480;BME280;732;51.698;4.886;2023-04-16T05:35:26;102453.53;;;4.25;85.40
1480;BME280;732;51.698;4.886;2023-04-16T05:37:54;102466.84;;;4.38;85.54
1480;BME280;732;51.698;4.886;2023-04-16T05:40:22;102470.69;;;4.34;85.79
1480;BME280;732;51.698;4.886;2023-04-16T05:42:50;102461.84;;;4.33;85.83
1480;BME280;732;51.698;4.886;2023-04-16T05:45:18;102471.09;;;4.55;85.11
1480;BME280;732;51.698;4.886;2023-04-16T05:47:47;102474.41;;;4.58;84.53
1480;BME280;732;51.698;4.886;2023-04-16T05:50:16;102469.91;;;4.32;85.52
1480;BME280;732;51.698;4.886;2023-04-16T05:52:44;102461.09;;;4.31;85.40
1480;BME280;732;51.698;4.886;2023-04-16T05:55:12;102462.38;;;4.38;85.21
1480;BME280;732;51.698;4.886;2023-04-16T05:57:40;102444.41;;;4.29;85.48
1480;BME280;732;51.698;4.886;2023-04-16T06:00:09;102472.94;;;4.40;85.67
1480;BME280;732;51.698;4.886;2023-04-16T06:02:38;102470.34;;;4.38;85.04
1480;BME280;732;51.698;4.886;2023-04-16T06:05:07;102484.69;;;4.36;85.81
1480;BME280;732;51.698;4.886;2023-04-16T06:07:37;102484.94;;;4.46;85.70
1480;BME280;732;51.698;4.886;2023-04-16T06:10:06;102485.03;;;4.44;85.61
1480;BME280;732;51.698;4.886;2023-04-16T06:12:34;102486.16;;;4.54;84.98
1480;BME280;732;51.698;4.886;2023-04-16T06:15:04;102493.97;;;4.70;84.81
1480;BME280;732;51.698;4.886;2023-04-16T06:17:32;102496.50;;;4.59;84.81
1480;BME280;732;51.698;4.886;2023-04-16T06:20:03;102447.91;;;4.30;85.36
1480;BME280;732;51.698;4.886;2023-04-16T06:22:31;102490.63;;;4.54;85.50
1480;BME280;732;51.698;4.886;2023-04-16T06:25:00;102495.25;;;4.37;85.79
1480;BME280;732;51.698;4.886;2023-04-16T06:27:29;102450.91;;;4.38;84.87
1480;BME280;732;51.698;4.886;2023-04-16T06:29:58;102500.72;;;4.49;85.95
1480;BME280;732;51.698;4.886;2023-04-16T06:32:26;102499.69;;;4.64;85.27
1480;BME280;732;51.698;4.886;2023-04-16T06:34:55;102501.72;;;4.61;85.02
1480;BME280;732;51.698;4.886;2023-04-16T06:37:24;102505.53;;;4.56;85.47
1480;BME280;732;51.698;4.886;2023-04-16T06:39:52;102513.41;;;4.58;85.29
1480;BME280;732;51.698;4.886;2023-04-16T06:42:22;102506.28;;;4.58;84.85
1480;BME280;732;51.698;4.886;2023-04-16T06:44:50;102497.31;;;4.47;85.48
1480;BME280;732;51.698;4.886;2023-04-16T06:47:18;102510.59;;;4.47;85.13
1480;BME280;732;51.698;4.886;2023-04-16T06:49:46;102478.72;;;4.32;85.00
1480;BME280;732;51.698;4.886;2023-04-16T06:52:15;102517.34;;;4.38;85.49
1480;BME280;732;51.698;4.886;2023-04-16T06:54:43;102514.56;;;4.54;85.32
1480;BME280;732;51.698;4.886;2023-04-16T06:57:11;102520.94;;;4.51;85.70
1480;BME280;732;51.698;4.886;2023-04-16T06:59:40;102530.81;;;4.49;85.22
1480;BME280;732;51.698;4.886;2023-04-16T07:02:09;102525.13;;;4.68;84.80
1480;BME280;732;51.698;4.886;2023-04-16T07:04:38;102530.50;;;4.81;84.54
1480;BME280;732;51.698;4.886;2023-04-16T07:07:07;102505.97;;;4.63;84.33
1480;BME280;732;51.698;4.886;2023-04-16T07:09:35;102533.97;;;4.69;84.53
1480;BME280;732;51.698;4.886;2023-04-16T07:12:04;102527.84;;;4.54;85.13
1480;BME280;732;51.698;4.886;2023-04-16T07:14:32;102539.06;;;4.72;85.03
1480;BME280;732;51.698;4.886;2023-04-16T07:17:02;102497.75;;;4.53;84.54
1480;BME280;732;51.698;4.886;2023-04-16T07:19:50;102542.66;;;4.71;84.54
1480;BME280;732;51.698;4.886;2023-04-16T07:22:18;102541.81;;;4.57;84.65
1480;BME280;732;51.698;4.886;2023-04-16T07:24:47;102513.91;;;4.50;84.80
1480;BME280;732;51.698;4.886;2023-04-16T07:27:15;102541.53;;;4.75;84.65
1480;BME280;732;51.698;4.886;2023-04-16T07:29:43;102537.63;;;4.94;83.91
1480;BME280;732;51.698;4.886;2023-04-16T07:32:13;102514.94;;;4.75;83.89
1480;BME280;732;51.698;4.886;2023-04-16T07:34:42;102502.53;;;4.88;83.08
1480;BME280;732;51.698;4.886;2023-04-16T07:37:10;102533.38;;;4.91;83.28
1480;BME280;732;51.698;4.886;2023-04-16T07:39:38;102549.22;;;4.93;83.77
1480;BME280;732;51.698;4.886;2023-04-16T07:42:06;102557.00;;;4.96;83.77
1480;BME280;732;51.698;4.886;2023-04-16T07:44:34;102556.50;;;5.16;83.20
1480;BME280;732;51.698;4.886;2023-04-16T07:47:02;102460.09;;;4.47;83.44
1480;BME280;732;51.698;4.886;2023-04-16T07:49:33;102559.88;;;5.05;83.13
1480;BME280;732;51.698;4.886;2023-04-16T07:52:01;102559.28;;;5.15;83.19
1480;BME280;732;51.698;4.886;2023-04-16T07:54:29;102558.09;;;5.32;82.95
1480;BME280;732;51.698;4.886;2023-04-16T07:56:57;102567.78;;;5.33;82.21
1480;BME280;732;51.698;4.886;2023-04-16T07:59:25;102535.66;;;5.36;81.66
1480;BME280;732;51.698;4.886;2023-04-16T08:01:54;102530.22;;;5.37;81.56
1480;BME280;732;51.698;4.886;2023-04-16T08:04:22;102572.06;;;5.48;81.65
1480;BME280;732;51.698;4.886;2023-04-16T08:06:53;102572.16;;;5.21;82.32
1480;BME280;732;51.698;4.886;2023-04-16T08:09:25;102548.81;;;4.99;82.58
1480;BME280;732;51.698;4.886;2023-04-16T08:11:54;102578.31;;;5.21;82.55
1480;BME280;732;51.698;4.886;2023-04-16T08:14:22;102578.13;;;5.25;82.43
1480;BME280;732;51.698;4.886;2023-04-16T08:16:50;102581.22;;;5.18;82.86
1480;BME280;732;51.698;4.886;2023-04-16T08:19:18;102563.06;;;4.98;82.99
1480;BME280;732;51.698;4.886;2023-04-16T08:21:47;102558.72;;;5.10;82.66
1480;BME280;732;51.698;4.886;2023-04-16T08:24:16;102591.34;;;5.39;82.52
1480;BME280;732;51.698;4.886;2023-04-16T08:26:44;102595.06;;;5.62;81.69
1480;BME280;732;51.698;4.886;2023-04-16T08:29:12;102588.56;;;5.66;80.97
1480;BME280;732;51.698;4.886;2023-04-16T08:31:41;102594.09;;;5.50;81.76
1480;BME280;732;51.698;4.886;2023-04-16T08:34:09;102595.16;;;5.48;81.91
1480;BME280;732;51.698;4.886;2023-04-16T08:36:39;102580.34;;;5.31;81.93
1480;BME280;732;51.698;4.886;2023-04-16T08:39:09;102601.66;;;5.57;81.58
1480;BME280;732;51.698;4.886;2023-04-16T08:41:45;102574.94;;;5.58;81.29
1480;BME280;732;51.698;4.886;2023-04-16T08:44:18;102563.56;;;5.56;80.57
1480;BME280;732;51.698;4.886;2023-04-16T08:46:48;102604.34;;;5.69;80.56
1480;BME280;732;51.698;4.886;2023-04-16T08:49:18;102608.16;;;5.52;81.88
1480;BME280;732;51.698;4.886;2023-04-16T08:51:50;102605.41;;;5.54;81.02
1480;BME280;732;51.698;4.886;2023-04-16T08:54:30;102595.72;;;5.66;81.07
1480;BME280;732;51.698;4.886;2023-04-16T08:57:05;102595.16;;;5.86;80.13
1480;BME280;732;51.698;4.886;2023-04-16T08:59:37;102603.38;;;5.83;80.27
1480;BME280;732;51.698;4.886;2023-04-16T09:02:09;102619.88;;;5.76;80.44
1480;BME280;732;51.698;4.886;2023-04-16T09:04:40;102594.09;;;5.37;80.99
1480;BME280;732;51.698;4.886;2023-04-16T09:07:11;102620.75;;;5.63;80.86
1480;BME280;732;51.698;4.886;2023-04-16T09:09:43;102624.78;;;5.69;80.81
1480;BME280;732;51.698;4.886;2023-04-16T09:12:13;102625.09;;;5.90;80.44
1480;BME280;732;51.698;4.886;2023-04-16T09:14:42;102627.75;;;6.03;79.95
1480;BME280;732;51.698;4.886;2023-04-16T09:17:11;102625.50;;;5.97;79.76
1480;BME280;732;51.698;4.886;2023-04-16T09:19:40;102627.34;;;5.96;80.19
1480;BME280;732;51.698;4.886;2023-04-16T09:22:10;102591.53;;;5.87;79.67
1480;BME280;732;51.698;4.886;2023-04-16T09:24:38;102636.63;;;5.91;80.15
1480;BME280;732;51.698;4.886;2023-04-16T09:27:11;102618.91;;;5.77;80.79
1480;BME280;732;51.698;4.886;2023-04-16T09:29:41;102637.34;;;6.06;79.95
1480;BME280;732;51.698;4.886;2023-04-16T09:32:10;102639.56;;;6.12;79.63
1480;BME280;732;51.698;4.886;2023-04-16T09:34:58;102595.47;;;5.95;79.09
1480;BME280;732;51.698;4.886;2023-04-16T09:37:28;102592.34;;;6.14;78.66
1480;BME280;732;51.698;4.886;2023-04-16T09:39:59;102572.34;;;5.95;78.21
1480;BME280;732;51.698;4.886;2023-04-16T09:42:30;102629.97;;;6.09;78.85
1480;BME280;732;51.698;4.886;2023-04-16T09:45:00;102654.91;;;6.21;78.73
1480;BME280;732;51.698;4.886;2023-04-16T09:47:39;102652.75;;;6.39;78.77
1480;BME280;732;51.698;4.886;2023-04-16T09:50:13;102634.91;;;6.52;78.17
1480;BME280;732;51.698;4.886;2023-04-16T09:52:47;102642.09;;;6.52;77.73
1480;BME280;732;51.698;4.886;2023-04-16T09:55:15;102621.84;;;6.36;77.68
1480;BME280;732;51.698;4.886;2023-04-16T09:57:58;102644.66;;;6.28;77.64
1480;BME280;732;51.698;4.886;2023-04-16T10:00:28;102621.09;;;6.22;78.12
1480;BME280;732;51.698;4.886;2023-04-16T10:03:04;102630.88;;;6.34;78.17
1480;BME280;732;51.698;4.886;2023-04-16T10:05:33;102631.56;;;6.38;77.84
1480;BME280;732;51.698;4.886;2023-04-16T10:08:01;102641.13;;;6.40;78.14
1480;BME280;732;51.698;4.886;2023-04-16T10:10:32;102655.69;;;6.60;77.89
1480;BME280;732;51.698;4.886;2023-04-16T10:13:01;102667.75;;;6.66;77.76
1480;BME280;732;51.698;4.886;2023-04-16T10:15:30;102655.44;;;6.76;77.43
1480;BME280;732;51.698;4.886;2023-04-16T10:17:59;102628.94;;;6.62;77.13
1480;BME280;732;51.698;4.886;2023-04-16T10:20:27;102676.28;;;6.95;76.99
1480;BME280;732;51.698;4.886;2023-04-16T10:22:56;102671.53;;;6.99;76.17
1480;BME280;732;51.698;4.886;2023-04-16T10:25:25;102635.34;;;6.83;76.25
1480;BME280;732;51.698;4.886;2023-04-16T10:27:55;102648.84;;;6.93;76.65
1480;BME280;732;51.698;4.886;2023-04-16T10:30:26;102683.59;;;7.05;76.17
1480;BME280;732;51.698;4.886;2023-04-16T10:32:56;102680.41;;;6.75;76.70
1480;BME280;732;51.698;4.886;2023-04-16T10:35:26;102679.41;;;6.52;77.95
1480;BME280;732;51.698;4.886;2023-04-16T10:37:56;102677.59;;;6.52;77.85
1480;BME280;732;51.698;4.886;2023-04-16T10:40:26;102641.25;;;6.39;77.47
1480;BME280;732;51.698;4.886;2023-04-16T10:42:56;102672.75;;;6.71;77.56
1480;BME280;732;51.698;4.886;2023-04-16T10:45:37;102669.78;;;6.62;77.73
1480;BME280;732;51.698;4.886;2023-04-16T10:48:08;102684.13;;;6.86;77.92
1480;BME280;732;51.698;4.886;2023-04-16T10:50:37;102678.13;;;7.06;77.35
1480;BME280;732;51.698;4.886;2023-04-16T10:53:18;102662.84;;;6.60;77.14
1480;BME280;732;51.698;4.886;2023-04-16T10:56:09;102678.75;;;6.61;77.26
1480;BME280;732;51.698;4.886;2023-04-16T10:58:41;102674.91;;;6.52;78.22
1480;BME280;732;51.698;4.886;2023-04-16T11:01:13;102659.94;;;6.26;78.16
1480;BME280;732;51.698;4.886;2023-04-16T11:03:46;102677.56;;;6.65;78.52
1480;BME280;732;51.698;4.886;2023-04-16T11:06:22;102650.84;;;6.41;77.34
1480;BME280;732;51.698;4.886;2023-04-16T11:08:54;102676.06;;;6.61;77.38
1480;BME280;732;51.698;4.886;2023-04-16T11:11:22;102676.25;;;6.71;77.09
1480;BME280;732;51.698;4.886;2023-04-16T11:13:54;102672.63;;;6.72;77.09
1480;BME280;732;51.698;4.886;2023-04-16T11:16:26;102671.31;;;6.78;76.79
1480;BME280;732;51.698;4.886;2023-04-16T11:18:55;102595.44;;;6.58;76.68
1480;BME280;732;51.698;4.886;2023-04-16T11:21:26;102676.78;;;7.00;76.55
1480;BME280;732;51.698;4.886;2023-04-16T11:23:58;102625.69;;;6.94;76.24
1480;BME280;732;51.698;4.886;2023-04-16T11:26:28;102598.91;;;6.95;75.38
1480;BME280;732;51.698;4.886;2023-04-16T11:28:56;102672.97;;;7.40;74.86
1480;BME280;732;51.698;4.886;2023-04-16T11:31:26;102678.06;;;7.55;74.96
1480;BME280;732;51.698;4.886;2023-04-16T11:33:56;102681.72;;;7.54;74.76
1480;BME280;732;51.698;4.886;2023-04-16T11:36:26;102669.16;;;7.31;75.21
1480;BME280;732;51.698;4.886;2023-04-16T11:39:01;102658.84;;;6.78;76.03
1480;BME280;732;51.698;4.886;2023-04-16T11:41:30;102672.25;;;6.65;77.72
1480;BME280;732;51.698;4.886;2023-04-16T11:43:58;102686.28;;;6.67;77.51
1480;BME280;732;51.698;4.886;2023-04-16T11:46:37;102655.69;;;6.60;76.89
1480;BME280;732;51.698;4.886;2023-04-16T11:49:08;102664.88;;;6.56;77.23
1480;BME280;732;51.698;4.886;2023-04-16T11:51:40;102679.09;;;6.81;77.19
1480;BME280;732;51.698;4.886;2023-04-16T11:54:08;102680.75;;;6.71;76.88
1480;BME280;732;51.698;4.886;2023-04-16T11:56:38;102681.09;;;6.90;77.53
1480;BME280;732;51.698;4.886;2023-04-16T11:59:15;102654.00;;;7.08;76.33
1480;BME280;732;51.698;4.886;2023-04-16T12:01:46;102686.16;;;7.30;76.00
1480;BME280;732;51.698;4.886;2023-04-16T12:04:19;102688.44;;;7.35;75.12
1480;BME280;732;51.698;4.886;2023-04-16T12:07:08;102687.91;;;7.19;75.65
1480;BME280;732;51.698;4.886;2023-04-16T12:09:37;102657.25;;;7.24;75.18
1480;BME280;732;51.698;4.886;2023-04-16T12:12:24;102687.81;;;7.56;75.06
1480;BME280;732;51.698;4.886;2023-04-16T12:14:53;102686.88;;;7.68;74.85
1480;BME280;732;51.698;4.886;2023-04-16T12:17:23;102696.00;;;7.77;74.84
1480;BME280;732;51.698;4.886;2023-04-16T12:19:58;102701.97;;;7.45;74.86
1480;BME280;732;51.698;4.886;2023-04-16T12:22:28;102697.53;;;7.57;74.88
1480;BME280;732;51.698;4.886;2023-04-16T12:25:01;102688.94;;;7.76;74.65
1480;BME280;732;51.698;4.886;2023-04-16T12:27:47;102666.22;;;7.70;74.29
1480;BME280;732;51.698;4.886;2023-04-16T12:30:21;102652.19;;;8.02;73.71
1480;BME280;732;51.698;4.886;2023-04-16T12:32:52;102668.72;;;8.07;72.53
1480;BME280;732;51.698;4.886;2023-04-16T12:35:33;102699.81;;;8.08;73.36
1480;BME280;732;51.698;4.886;2023-04-16T12:38:01;102663.09;;;7.88;73.02
1480;BME280;732;51.698;4.886;2023-04-16T12:40:30;102665.84;;;7.75;73.09
1480;BME280;732;51.698;4.886;2023-04-16T12:42:58;102700.91;;;8.17;73.09
1480;BME280;732;51.698;4.886;2023-04-16T12:45:27;102684.84;;;7.94;72.73
1480;BME280;732;51.698;4.886;2023-04-16T12:47:55;102698.63;;;7.65;74.19
1480;BME280;732;51.698;4.886;2023-04-16T12:50:23;102690.81;;;7.51;74.75
1480;BME280;732;51.698;4.886;2023-04-16T12:52:54;102650.28;;;7.10;75.86
1480;BME280;732;51.698;4.886;2023-04-16T12:55:23;102673.78;;;7.41;75.76
1480;BME280;732;51.698;4.886;2023-04-16T12:57:51;102701.53;;;7.27;75.90
1480;BME280;732;51.698;4.886;2023-04-16T13:00:20;102686.28;;;7.05;76.06
1480;BME280;732;51.698;4.886;2023-04-16T13:02:49;102713.25;;;7.13;76.67
1480;BME280;732;51.698;4.886;2023-04-16T13:05:17;102707.50;;;7.30;76.14
1480;BME280;732;51.698;4.886;2023-04-16T13:07:45;102705.34;;;7.11;76.78
1480;BME280;732;51.698;4.886;2023-04-16T13:10:15;102697.88;;;7.16;76.34
1480;BME280;732;51.698;4.886;2023-04-16T13:12:43;102707.81;;;7.50;75.68
1480;BME280;732;51.698;4.886;2023-04-16T13:15:14;102683.06;;;7.59;74.49
1480;BME280;732;51.698;4.886;2023-04-16T13:17:43;102705.84;;;7.76;74.46
1480;BME280;732;51.698;4.886;2023-04-16T13:20:12;102684.81;;;7.72;73.96
1480;BME280;732;51.698;4.886;2023-04-16T13:22:40;102704.56;;;8.05;73.69
1480;BME280;732;51.698;4.886;2023-04-16T13:25:09;102702.38;;;8.55;72.82
1480;BME280;732;51.698;4.886;2023-04-16T13:27:38;102701.16;;;8.59;71.40
1480;BME280;732;51.698;4.886;2023-04-16T13:30:08;102700.91;;;8.62;70.59
1480;BME280;732;51.698;4.886;2023-04-16T13:32:36;102676.44;;;8.67;70.63
1480;BME280;732;51.698;4.886;2023-04-16T13:35:05;102698.72;;;8.68;70.36
1480;BME280;732;51.698;4.886;2023-04-16T13:37:33;102702.22;;;8.68;70.81
1480;BME280;732;51.698;4.886;2023-04-16T13:40:02;102676.84;;;8.17;71.64
1480;BME280;732;51.698;4.886;2023-04-16T13:42:30;102699.91;;;7.95;72.43
1480;BME280;732;51.698;4.886;2023-04-16T13:45:02;102690.28;;;7.81;73.58
1480;BME280;732;51.698;4.886;2023-04-16T13:47:30;102695.22;;;8.22;72.92